TimeEDT,TemperatureF,Dew PointF,Humidity,Sea Level PressureIn,VisibilityMPH,Wind Direction,Wind SpeedMPH,Gust SpeedMPH,PrecipitationIn,Events,Conditions,WindDirDegrees,DateUTC
12:53 AM,79.0,73.9,84,29.83,9.0,SSW,6.9,-,N/A,,Clear,210,2013-09-03 04:53:00
1:53 AM,78.1,73.9,87,29.82,8.0,SW,8.1,-,N/A,,Clear,220,2013-09-03 05:53:00
2:53 AM,78.1,73.0,84,29.82,9.0,SW,5.8,-,N/A,,Clear,230,2013-09-03 06:53:00
3:53 AM,77.0,71.1,82,29.80,10.0,SW,6.9,-,N/A,,Clear,230,2013-09-03 07:53:00
4:53 AM,75.0,71.1,87,29.81,10.0,SW,5.8,-,N/A,,Clear,220,2013-09-03 08:53:00
5:53 AM,73.9,71.1,91,29.82,10.0,South,6.9,-,N/A,,Clear,170,2013-09-03 09:53:00
6:53 AM,73.0,70.0,90,29.84,9.0,South,8.1,-,N/A,,Clear,190,2013-09-03 10:53:00
7:53 AM,73.0,70.0,90,29.86,9.0,SSW,6.9,-,N/A,,Clear,210,2013-09-03 11:53:00
8:53 AM,75.9,71.1,85,29.87,10.0,SW,6.9,-,N/A,,Partly Cloudy,230,2013-09-03 12:53:00
9:53 AM,80.1,72.0,76,29.86,10.0,Variable,5.8,-,N/A,,Clear,0,2013-09-03 13:53:00
10:53 AM,84.0,72.0,67,29.87,10.0,SW,5.8,-,N/A,,Clear,220,2013-09-03 14:53:00
11:53 AM,86.0,71.1,61,29.86,10.0,WSW,5.8,-,N/A,,Partly Cloudy,240,2013-09-03 15:53:00
12:53 PM,89.1,70.0,53,29.84,10.0,Variable,4.6,-,N/A,,Clear,0,2013-09-03 16:53:00
1:41 PM,89.6,71.6,55,29.85,10.0,SW,8.1,-,N/A,Thunderstorm,Mostly Cloudy,230,2013-09-03 17:41:00
1:53 PM,90.0,71.1,54,29.83,10.0,SW,8.1,-,N/A,,Mostly Cloudy,230,2013-09-03 17:53:00
2:53 PM,91.0,70.0,50,29.80,10.0,SW,9.2,-,N/A,,Partly Cloudy,220,2013-09-03 18:53:00
3:39 PM,89.6,71.6,55,29.82,10.0,SSW,8.1,-,N/A,Thunderstorm,Mostly Cloudy,200,2013-09-03 19:39:00
3:53 PM,90.0,71.1,54,29.80,10.0,Variable,4.6,-,N/A,,Overcast,0,2013-09-03 19:53:00
4:12 PM,84.2,69.8,62,29.83,5.0,WNW,23.0,33.4,0.02,Thunderstorm,Haze,290,2013-09-03 20:12:00
4:21 PM,80.6,64.4,58,29.81,2.5,Calm,Calm,-,0.04,Rain-Thunderstorm,Light Rain,0,2013-09-03 20:21:00
4:28 PM,78.8,71.6,78,29.82,10.0,West,8.1,-,0.04,Thunderstorm,Thunderstorm,260,2013-09-03 20:28:00
4:53 PM,75.9,70.0,82,29.81,10.0,SSW,8.1,-,0.05,Thunderstorm,Thunderstorm,210,2013-09-03 20:53:00
5:53 PM,73.9,68.0,82,29.83,10.0,South,6.9,-,0.00,,Scattered Clouds,170,2013-09-03 21:53:00
6:53 PM,75.0,69.1,82,29.84,10.0,Calm,Calm,-,N/A,,Clear,0,2013-09-03 22:53:00
7:53 PM,73.9,70.0,87,29.86,10.0,SW,5.8,-,N/A,,Mostly Cloudy,230,2013-09-03 23:53:00
8:53 PM,73.0,70.0,90,29.89,10.0,Calm,Calm,-,N/A,,Mostly Cloudy,0,2013-09-04 00:53:00
9:53 PM,73.0,69.1,87,29.91,10.0,Calm,Calm,-,N/A,,Mostly Cloudy,0,2013-09-04 01:53:00
10:53 PM,71.1,69.1,93,29.92,10.0,Calm,Calm,-,N/A,,Clear,0,2013-09-04 02:53:00
11:53 PM,71.1,69.1,93,29.93,10.0,WSW,3.5,-,N/A,,Clear,240,2013-09-04 03:53:00